Terminal Aerodrome Forecast
Issued by NWS

Home | Current Version | Previous Version | Graphics & Text | Print | Product List | Glossary On
Versions: 1 2 3 4 5 6 7 8 9 10 11 12 13 14 15 16 17 18 19 20 21 22 23 24 25 26 27 28 29 30
000
FTUS43 KLOT 142320
TAFGYY
TAF
KGYY 142320Z 1500/1524 17010KT P6SM BKN060
     FM150700 18012KT P6SM VCSH OVC040
     FM151100 19012KT 5SM -SHRA SCT020 OVC035
     FM151300 20010KT 3SM -RA BR OVC008
     FM151900 25012G18KT P6SM SCT008 BKN015
     FM152100 28016G24KT P6SM SCT020=

USA.gov is the U.S. government's official web portal to all federal, state and local government web resources and services.